sensor_id;sensor_type;location;lat;lon;timestamp;P1;durP1;ratioP1;P2;durP2;ratioP2
16524;SDS011;8375;33.594;-117.718;2023-03-11T00:00:54;2.97;;;1.20;;
16524;SDS011;8375;33.594;-117.718;2023-03-11T00:03:23;1.90;;;1.10;;
16524;SDS011;8375;33.594;-117.718;2023-03-11T00:05:54;1.60;;;1.10;;
16524;SDS011;8375;33.594;-117.718;2023-03-11T00:08:23;5.40;;;1.20;;
16524;SDS011;8375;33.594;-117.718;2023-03-11T00:10:53;3.03;;;0.80;;
16524;SDS011;8375;33.594;-117.718;2023-03-11T00:13:23;2.77;;;1.20;;
16524;SDS011;8375;33.594;-117.718;2023-03-11T00:15:54;2.33;;;1.23;;
16524;SDS011;8375;33.594;-117.718;2023-03-11T00:18:24;1.83;;;0.93;;
16524;SDS011;8375;33.594;-117.718;2023-03-11T00:20:56;1.83;;;1.00;;
16524;SDS011;8375;33.594;-117.718;2023-03-11T00:23:25;2.70;;;1.13;;
16524;SDS011;8375;33.594;-117.718;2023-03-11T00:25:55;3.03;;;1.00;;
16524;SDS011;8375;33.594;-117.718;2023-03-11T00:28:24;3.23;;;1.07;;
16524;SDS011;8375;33.594;-117.718;2023-03-11T00:30:54;2.50;;;0.80;;
16524;SDS011;8375;33.594;-117.718;2023-03-11T00:33:23;3.33;;;1.30;;
16524;SDS011;8375;33.594;-117.718;2023-03-11T00:35:51;5.07;;;0.70;;
16524;SDS011;8375;33.594;-117.718;2023-03-11T00:38:20;7.53;;;0.90;;
16524;SDS011;8375;33.594;-117.718;2023-03-11T00:40:49;1.00;;;0.60;;
16524;SDS011;8375;33.594;-117.718;2023-03-11T00:43:18;2.83;;;0.37;;
16524;SDS011;8375;33.594;-117.718;2023-03-11T00:45:47;2.27;;;0.73;;
16524;SDS011;8375;33.594;-117.718;2023-03-11T00:48:17;3.63;;;0.63;;
16524;SDS011;8375;33.594;-117.718;2023-03-11T00:50:46;1.37;;;0.70;;
16524;SDS011;8375;33.594;-117.718;2023-03-11T00:53:15;1.87;;;0.53;;
16524;SDS011;8375;33.594;-117.718;2023-03-11T00:55:43;1.93;;;0.70;;
16524;SDS011;8375;33.594;-117.718;2023-03-11T00:58:12;1.37;;;0.90;;
16524;SDS011;8375;33.594;-117.718;2023-03-11T01:00:41;4.27;;;1.00;;
16524;SDS011;8375;33.594;-117.718;2023-03-11T01:03:10;2.43;;;0.80;;
16524;SDS011;8375;33.594;-117.718;2023-03-11T01:05:40;2.10;;;0.70;;
16524;SDS011;8375;33.594;-117.718;2023-03-11T01:08:09;1.47;;;0.80;;
16524;SDS011;8375;33.594;-117.718;2023-03-11T01:10:38;1.50;;;0.77;;
16524;SDS011;8375;33.594;-117.718;2023-03-11T01:13:07;0.93;;;0.63;;
16524;SDS011;8375;33.594;-117.718;2023-03-11T01:15:35;5.83;;;1.20;;
16524;SDS011;8375;33.594;-117.718;2023-03-11T01:18:05;1.47;;;1.30;;
16524;SDS011;8375;33.594;-117.718;2023-03-11T01:20:34;5.87;;;1.30;;
16524;SDS011;8375;33.594;-117.718;2023-03-11T01:23:05;2.13;;;0.73;;
16524;SDS011;8375;33.594;-117.718;2023-03-11T01:25:35;1.70;;;0.77;;
16524;SDS011;8375;33.594;-117.718;2023-03-11T01:28:04;1.23;;;0.70;;
16524;SDS011;8375;33.594;-117.718;2023-03-11T01:30:34;0.97;;;0.60;;
16524;SDS011;8375;33.594;-117.718;2023-03-11T01:33:04;1.63;;;0.93;;
16524;SDS011;8375;33.594;-117.718;2023-03-11T01:35:33;1.60;;;0.63;;
16524;SDS011;8375;33.594;-117.718;2023-03-11T01:38:06;0.57;;;0.50;;
16524;SDS011;8375;33.594;-117.718;2023-03-11T01:40:35;1.00;;;0.50;;
16524;SDS011;8375;33.594;-117.718;2023-03-11T01:43:33;1.93;;;0.60;;
16524;SDS011;8375;33.594;-117.718;2023-03-11T01:46:14;0.77;;;0.47;;
16524;SDS011;8375;33.594;-117.718;2023-03-11T01:48:45;2.13;;;0.67;;
16524;SDS011;8375;33.594;-117.718;2023-03-11T01:51:16;1.30;;;0.70;;
16524;SDS011;8375;33.594;-117.718;2023-03-11T01:53:53;2.00;;;0.70;;
16524;SDS011;8375;33.594;-117.718;2023-03-11T01:56:26;4.20;;;0.90;;
16524;SDS011;8375;33.594;-117.718;2023-03-11T01:58:55;1.30;;;0.67;;
16524;SDS011;8375;33.594;-117.718;2023-03-11T02:01:26;1.40;;;1.00;;
16524;SDS011;8375;33.594;-117.718;2023-03-11T02:03:55;1.40;;;0.80;;
16524;SDS011;8375;33.594;-117.718;2023-03-11T02:06:25;2.47;;;1.00;;
16524;SDS011;8375;33.594;-117.718;2023-03-11T02:08:56;7.13;;;2.27;;
16524;SDS011;8375;33.594;-117.718;2023-03-11T02:11:28;2.17;;;1.00;;
16524;SDS011;8375;33.594;-117.718;2023-03-11T02:13:58;1.27;;;0.97;;
16524;SDS011;8375;33.594;-117.718;2023-03-11T02:16:30;1.00;;;0.87;;
16524;SDS011;8375;33.594;-117.718;2023-03-11T02:18:59;1.20;;;0.90;;
16524;SDS011;8375;33.594;-117.718;2023-03-11T02:21:37;1.57;;;0.93;;
16524;SDS011;8375;33.594;-117.718;2023-03-11T02:24:11;0.90;;;0.73;;
16524;SDS011;8375;33.594;-117.718;2023-03-11T02:26:51;1.20;;;0.90;;
16524;SDS011;8375;33.594;-117.718;2023-03-11T02:29:22;1.20;;;1.10;;
16524;SDS011;8375;33.594;-117.718;2023-03-11T02:31:51;2.37;;;1.00;;
16524;SDS011;8375;33.594;-117.718;2023-03-11T02:34:24;1.90;;;0.90;;
16524;SDS011;8375;33.594;-117.718;2023-03-11T02:36:55;0.80;;;0.80;;
16524;SDS011;8375;33.594;-117.718;2023-03-11T02:39:28;1.10;;;1.00;;
16524;SDS011;8375;33.594;-117.718;2023-03-11T02:41:59;3.33;;;1.20;;
16524;SDS011;8375;33.594;-117.718;2023-03-11T02:44:31;1.60;;;1.10;;
16524;SDS011;8375;33.594;-117.718;2023-03-11T02:47:01;1.27;;;1.10;;
16524;SDS011;8375;33.594;-117.718;2023-03-11T02:49:29;2.87;;;1.47;;
16524;SDS011;8375;33.594;-117.718;2023-03-11T02:51:59;8.03;;;4.93;;
16524;SDS011;8375;33.594;-117.718;2023-03-11T02:54:38;5.97;;;3.93;;
16524;SDS011;8375;33.594;-117.718;2023-03-11T02:57:10;16.83;;;8.97;;
16524;SDS011;8375;33.594;-117.718;2023-03-11T02:59:38;4.77;;;3.80;;
16524;SDS011;8375;33.594;-117.718;2023-03-11T03:02:07;3.73;;;1.83;;
16524;SDS011;8375;33.594;-117.718;2023-03-11T03:04:36;1.97;;;1.87;;
16524;SDS011;8375;33.594;-117.718;2023-03-11T03:07:05;1.23;;;1.13;;
16524;SDS011;8375;33.594;-117.718;2023-03-11T03:09:34;5.40;;;1.70;;
16524;SDS011;8375;33.594;-117.718;2023-03-11T03:12:03;3.40;;;2.10;;
16524;SDS011;8375;33.594;-117.718;2023-03-11T03:14:34;2.57;;;2.37;;
16524;SDS011;8375;33.594;-117.718;2023-03-11T03:17:03;3.20;;;1.90;;
16524;SDS011;8375;33.594;-117.718;2023-03-11T03:19:31;1.90;;;1.80;;
16524;SDS011;8375;33.594;-117.718;2023-03-11T03:22:00;4.00;;;1.97;;
16524;SDS011;8375;33.594;-117.718;2023-03-11T03:24:29;3.83;;;1.93;;
16524;SDS011;8375;33.594;-117.718;2023-03-11T03:27:01;4.10;;;1.63;;
16524;SDS011;8375;33.594;-117.718;2023-03-11T03:29:35;3.00;;;2.63;;
16524;SDS011;8375;33.594;-117.718;2023-03-11T03:32:04;4.80;;;2.27;;
16524;SDS011;8375;33.594;-117.718;2023-03-11T03:34:33;3.00;;;2.23;;
16524;SDS011;8375;33.594;-117.718;2023-03-11T03:37:01;2.57;;;2.37;;
16524;SDS011;8375;33.594;-117.718;2023-03-11T03:39:31;4.53;;;2.50;;
16524;SDS011;8375;33.594;-117.718;2023-03-11T03:42:02;4.87;;;2.20;;
16524;SDS011;8375;33.594;-117.718;2023-03-11T03:44:31;6.40;;;2.47;;
16524;SDS011;8375;33.594;-117.718;2023-03-11T03:47:01;2.83;;;2.63;;
16524;SDS011;8375;33.594;-117.718;2023-03-11T03:49:30;3.43;;;3.00;;
16524;SDS011;8375;33.594;-117.718;2023-03-11T03:51:59;2.93;;;2.73;;
16524;SDS011;8375;33.594;-117.718;2023-03-11T03:54:30;2.10;;;1.90;;
16524;SDS011;8375;33.594;-117.718;2023-03-11T03:56:58;2.60;;;2.20;;
16524;SDS011;8375;33.594;-117.718;2023-03-11T03:59:27;2.10;;;2.00;;
16524;SDS011;8375;33.594;-117.718;2023-03-11T04:01:56;5.40;;;2.30;;
16524;SDS011;8375;33.594;-117.718;2023-03-11T04:04:27;2.77;;;1.80;;
16524;SDS011;8375;33.594;-117.718;2023-03-11T04:06:56;2.40;;;1.47;;
16524;SDS011;8375;33.594;-117.718;2023-03-11T04:09:25;2.70;;;1.27;;
16524;SDS011;8375;33.594;-117.718;2023-03-11T04:11:54;3.93;;;1.30;;
16524;SDS011;8375;33.594;-117.718;2023-03-11T04:14:22;3.73;;;1.60;;
16524;SDS011;8375;33.594;-117.718;2023-03-11T04:16:51;4.10;;;1.50;;
16524;SDS011;8375;33.594;-117.718;2023-03-11T04:19:20;5.50;;;3.80;;
16524;SDS011;8375;33.594;-117.718;2023-03-11T04:21:50;2.50;;;2.10;;
16524;SDS011;8375;33.594;-117.718;2023-03-11T04:24:19;3.33;;;3.00;;
16524;SDS011;8375;33.594;-117.718;2023-03-11T04:26:47;2.60;;;2.27;;
16524;SDS011;8375;33.594;-117.718;2023-03-11T04:29:16;2.23;;;1.37;;
16524;SDS011;8375;33.594;-117.718;2023-03-11T04:31:45;1.97;;;1.10;;
16524;SDS011;8375;33.594;-117.718;2023-03-11T04:34:13;1.80;;;1.60;;
16524;SDS011;8375;33.594;-117.718;2023-03-11T04:36:42;2.40;;;1.60;;
16524;SDS011;8375;33.594;-117.718;2023-03-11T04:39:19;2.57;;;2.23;;
16524;SDS011;8375;33.594;-117.718;2023-03-11T04:41:49;2.87;;;2.50;;
16524;SDS011;8375;33.594;-117.718;2023-03-11T04:44:17;2.70;;;2.20;;
16524;SDS011;8375;33.594;-117.718;2023-03-11T04:46:46;3.13;;;2.70;;
16524;SDS011;8375;33.594;-117.718;2023-03-11T04:49:15;4.63;;;2.57;;
16524;SDS011;8375;33.594;-117.718;2023-03-11T04:51:59;4.23;;;2.30;;
16524;SDS011;8375;33.594;-117.718;2023-03-11T04:54:30;4.03;;;3.70;;
16524;SDS011;8375;33.594;-117.718;2023-03-11T04:56:59;3.17;;;2.37;;
16524;SDS011;8375;33.594;-117.718;2023-03-11T04:59:28;5.90;;;3.13;;
16524;SDS011;8375;33.594;-117.718;2023-03-11T05:01:57;3.10;;;2.80;;
16524;SDS011;8375;33.594;-117.718;2023-03-11T05:04:27;5.30;;;2.90;;
16524;SDS011;8375;33.594;-117.718;2023-03-11T05:09:48;3.73;;;2.80;;
16524;SDS011;8375;33.594;-117.718;2023-03-11T05:12:18;3.23;;;2.50;;
16524;SDS011;8375;33.594;-117.718;2023-03-11T05:14:46;3.30;;;2.30;;
16524;SDS011;8375;33.594;-117.718;2023-03-11T05:17:15;2.10;;;1.90;;
16524;SDS011;8375;33.594;-117.718;2023-03-11T05:19:45;2.00;;;1.90;;
16524;SDS011;8375;33.594;-117.718;2023-03-11T05:22:14;2.70;;;2.50;;
16524;SDS011;8375;33.594;-117.718;2023-03-11T05:24:45;2.60;;;2.40;;
16524;SDS011;8375;33.594;-117.718;2023-03-11T05:27:14;2.90;;;2.70;;
16524;SDS011;8375;33.594;-117.718;2023-03-11T05:29:44;3.20;;;2.93;;
16524;SDS011;8375;33.594;-117.718;2023-03-11T05:32:15;3.93;;;2.90;;
16524;SDS011;8375;33.594;-117.718;2023-03-11T05:34:44;4.57;;;3.40;;
16524;SDS011;8375;33.594;-117.718;2023-03-11T05:37:13;3.50;;;3.20;;
16524;SDS011;8375;33.594;-117.718;2023-03-11T05:39:42;4.10;;;3.70;;
16524;SDS011;8375;33.594;-117.718;2023-03-11T05:42:12;4.00;;;2.90;;
16524;SDS011;8375;33.594;-117.718;2023-03-11T05:44:41;3.00;;;2.70;;
16524;SDS011;8375;33.594;-117.718;2023-03-11T05:47:10;4.00;;;2.13;;
16524;SDS011;8375;33.594;-117.718;2023-03-11T05:49:38;2.17;;;1.97;;
16524;SDS011;8375;33.594;-117.718;2023-03-11T05:52:07;1.43;;;1.30;;
16524;SDS011;8375;33.594;-117.718;2023-03-11T05:54:36;3.03;;;1.63;;
16524;SDS011;8375;33.594;-117.718;2023-03-11T05:57:06;1.80;;;1.13;;
16524;SDS011;8375;33.594;-117.718;2023-03-11T05:59:37;1.10;;;1.00;;
16524;SDS011;8375;33.594;-117.718;2023-03-11T06:02:08;2.13;;;1.40;;
16524;SDS011;8375;33.594;-117.718;2023-03-11T06:04:36;1.70;;;1.60;;
16524;SDS011;8375;33.594;-117.718;2023-03-11T06:07:05;1.80;;;1.70;;
16524;SDS011;8375;33.594;-117.718;2023-03-11T06:09:34;2.30;;;1.70;;
16524;SDS011;8375;33.594;-117.718;2023-03-11T06:12:03;2.10;;;2.00;;
16524;SDS011;8375;33.594;-117.718;2023-03-11T06:14:32;3.57;;;2.10;;
16524;SDS011;8375;33.594;-117.718;2023-03-11T06:17:02;2.27;;;2.07;;
16524;SDS011;8375;33.594;-117.718;2023-03-11T06:19:31;2.03;;;1.80;;
16524;SDS011;8375;33.594;-117.718;2023-03-11T06:22:00;4.73;;;2.00;;
16524;SDS011;8375;33.594;-117.718;2023-03-11T06:24:31;4.43;;;1.80;;
16524;SDS011;8375;33.594;-117.718;2023-03-11T06:27:00;3.53;;;2.13;;
16524;SDS011;8375;33.594;-117.718;2023-03-11T06:29:28;2.80;;;1.97;;
16524;SDS011;8375;33.594;-117.718;2023-03-11T06:31:57;2.53;;;2.33;;
16524;SDS011;8375;33.594;-117.718;2023-03-11T06:34:27;6.90;;;2.77;;
16524;SDS011;8375;33.594;-117.718;2023-03-11T06:36:56;5.23;;;2.30;;
16524;SDS011;8375;33.594;-117.718;2023-03-11T06:39:26;3.00;;;2.23;;
16524;SDS011;8375;33.594;-117.718;2023-03-11T06:41:55;4.00;;;2.20;;
16524;SDS011;8375;33.594;-117.718;2023-03-11T06:44:23;2.00;;;1.80;;
16524;SDS011;8375;33.594;-117.718;2023-03-11T06:46:52;2.40;;;1.73;;
16524;SDS011;8375;33.594;-117.718;2023-03-11T06:49:20;3.40;;;1.87;;
16524;SDS011;8375;33.594;-117.718;2023-03-11T06:51:51;3.10;;;1.87;;
16524;SDS011;8375;33.594;-117.718;2023-03-11T06:54:19;2.70;;;1.60;;
16524;SDS011;8375;33.594;-117.718;2023-03-11T06:56:48;3.40;;;1.60;;
16524;SDS011;8375;33.594;-117.718;2023-03-11T06:59:17;1.50;;;1.40;;
16524;SDS011;8375;33.594;-117.718;2023-03-11T07:01:51;2.93;;;1.20;;
16524;SDS011;8375;33.594;-117.718;2023-03-11T07:04:20;3.83;;;1.70;;
16524;SDS011;8375;33.594;-117.718;2023-03-11T07:06:48;4.07;;;1.53;;
16524;SDS011;8375;33.594;-117.718;2023-03-11T07:09:19;1.50;;;1.40;;
16524;SDS011;8375;33.594;-117.718;2023-03-11T07:11:49;2.30;;;1.93;;
16524;SDS011;8375;33.594;-117.718;2023-03-11T07:14:19;10.10;;;2.70;;
16524;SDS011;8375;33.594;-117.718;2023-03-11T07:16:47;3.90;;;2.33;;
16524;SDS011;8375;33.594;-117.718;2023-03-11T07:19:16;2.13;;;1.97;;
16524;SDS011;8375;33.594;-117.718;2023-03-11T07:21:45;2.53;;;2.33;;
16524;SDS011;8375;33.594;-117.718;2023-03-11T07:24:18;2.80;;;2.17;;
16524;SDS011;8375;33.594;-117.718;2023-03-11T07:26:51;2.23;;;1.87;;
16524;SDS011;8375;33.594;-117.718;2023-03-11T07:29:20;1.70;;;1.60;;
16524;SDS011;8375;33.594;-117.718;2023-03-11T07:31:48;2.60;;;1.40;;
16524;SDS011;8375;33.594;-117.718;2023-03-11T07:34:17;2.20;;;1.60;;
16524;SDS011;8375;33.594;-117.718;2023-03-11T07:36:46;2.57;;;1.63;;
16524;SDS011;8375;33.594;-117.718;2023-03-11T07:39:18;2.80;;;1.70;;
16524;SDS011;8375;33.594;-117.718;2023-03-11T07:41:47;1.90;;;1.70;;
16524;SDS011;8375;33.594;-117.718;2023-03-11T07:44:18;3.73;;;1.60;;
16524;SDS011;8375;33.594;-117.718;2023-03-11T07:46:48;2.40;;;1.43;;
16524;SDS011;8375;33.594;-117.718;2023-03-11T07:49:17;2.33;;;1.60;;
16524;SDS011;8375;33.594;-117.718;2023-03-11T07:51:45;1.33;;;1.23;;
16524;SDS011;8375;33.594;-117.718;2023-03-11T07:54:14;2.00;;;1.40;;
16524;SDS011;8375;33.594;-117.718;2023-03-11T07:56:44;2.40;;;1.47;;
16524;SDS011;8375;33.594;-117.718;2023-03-11T07:59:13;1.30;;;1.20;;
16524;SDS011;8375;33.594;-117.718;2023-03-11T08:01:41;3.87;;;1.80;;
16524;SDS011;8375;33.594;-117.718;2023-03-11T08:04:12;1.97;;;1.60;;
16524;SDS011;8375;33.594;-117.718;2023-03-11T08:06:43;2.03;;;1.60;;
16524;SDS011;8375;33.594;-117.718;2023-03-11T08:09:13;1.73;;;1.63;;
16524;SDS011;8375;33.594;-117.718;2023-03-11T08:11:44;1.90;;;1.70;;
16524;SDS011;8375;33.594;-117.718;2023-03-11T08:14:13;2.07;;;1.87;;
16524;SDS011;8375;33.594;-117.718;2023-03-11T08:16:43;1.90;;;1.80;;
16524;SDS011;8375;33.594;-117.718;2023-03-11T08:19:13;3.20;;;2.20;;
16524;SDS011;8375;33.594;-117.718;2023-03-11T08:21:41;2.50;;;2.30;;
16524;SDS011;8375;33.594;-117.718;2023-03-11T08:24:11;2.40;;;2.20;;
16524;SDS011;8375;33.594;-117.718;2023-03-11T08:26:49;2.80;;;2.57;;
16524;SDS011;8375;33.594;-117.718;2023-03-11T08:29:17;6.53;;;2.87;;
16524;SDS011;8375;33.594;-117.718;2023-03-11T08:31:46;7.63;;;2.73;;
16524;SDS011;8375;33.594;-117.718;2023-03-11T08:34:14;3.80;;;2.70;;
16524;SDS011;8375;33.594;-117.718;2023-03-11T08:36:45;4.10;;;2.73;;
16524;SDS011;8375;33.594;-117.718;2023-03-11T08:39:14;3.10;;;2.80;;
16524;SDS011;8375;33.594;-117.718;2023-03-11T08:41:43;6.93;;;2.73;;
16524;SDS011;8375;33.594;-117.718;2023-03-11T08:44:13;4.70;;;2.10;;
16524;SDS011;8375;33.594;-117.718;2023-03-11T08:46:42;3.37;;;2.20;;
16524;SDS011;8375;33.594;-117.718;2023-03-11T08:49:10;7.57;;;3.30;;
16524;SDS011;8375;33.594;-117.718;2023-03-11T08:51:39;2.50;;;2.30;;
16524;SDS011;8375;33.594;-117.718;2023-03-11T08:54:07;2.47;;;2.03;;
16524;SDS011;8375;33.594;-117.718;2023-03-11T08:56:36;2.47;;;2.27;;
16524;SDS011;8375;33.594;-117.718;2023-03-11T08:59:05;2.00;;;1.90;;
16524;SDS011;8375;33.594;-117.718;2023-03-11T09:01:35;5.43;;;1.73;;
16524;SDS011;8375;33.594;-117.718;2023-03-11T09:04:04;1.80;;;1.70;;
16524;SDS011;8375;33.594;-117.718;2023-03-11T09:06:32;5.77;;;2.23;;
16524;SDS011;8375;33.594;-117.718;2023-03-11T09:09:01;3.27;;;1.70;;
16524;SDS011;8375;33.594;-117.718;2023-03-11T09:11:30;2.47;;;1.73;;
16524;SDS011;8375;33.594;-117.718;2023-03-11T09:14:02;2.73;;;1.67;;
16524;SDS011;8375;33.594;-117.718;2023-03-11T09:16:31;3.30;;;1.80;;
16524;SDS011;8375;33.594;-117.718;2023-03-11T09:19:01;2.30;;;2.10;;
16524;SDS011;8375;33.594;-117.718;2023-03-11T09:21:31;2.70;;;2.47;;
16524;SDS011;8375;33.594;-117.718;2023-03-11T09:24:01;5.43;;;2.20;;
16524;SDS011;8375;33.594;-117.718;2023-03-11T09:26:30;2.60;;;2.40;;
16524;SDS011;8375;33.594;-117.718;2023-03-11T09:28:59;3.20;;;2.30;;
16524;SDS011;8375;33.594;-117.718;2023-03-11T09:31:28;2.10;;;2.00;;
16524;SDS011;8375;33.594;-117.718;2023-03-11T09:33:56;2.00;;;1.87;;
16524;SDS011;8375;33.594;-117.718;2023-03-11T09:36:26;1.70;;;1.60;;
16524;SDS011;8375;33.594;-117.718;2023-03-11T09:38:55;1.60;;;1.50;;
16524;SDS011;8375;33.594;-117.718;2023-03-11T09:41:28;1.20;;;1.10;;
16524;SDS011;8375;33.594;-117.718;2023-03-11T09:44:09;5.47;;;1.60;;
16524;SDS011;8375;33.594;-117.718;2023-03-11T09:46:51;3.37;;;2.00;;
16524;SDS011;8375;33.594;-117.718;2023-03-11T09:49:29;1.90;;;1.80;;
16524;SDS011;8375;33.594;-117.718;2023-03-11T09:52:11;1.70;;;1.60;;
16524;SDS011;8375;33.594;-117.718;2023-03-11T09:54:42;2.07;;;1.67;;
16524;SDS011;8375;33.594;-117.718;2023-03-11T09:57:14;2.07;;;1.87;;
16524;SDS011;8375;33.594;-117.718;2023-03-11T09:59:46;1.77;;;1.67;;
16524;SDS011;8375;33.594;-117.718;2023-03-11T10:02:16;1.63;;;1.53;;
16524;SDS011;8375;33.594;-117.718;2023-03-11T10:04:49;2.80;;;1.80;;
16524;SDS011;8375;33.594;-117.718;2023-03-11T10:07:24;2.00;;;1.90;;
16524;SDS011;8375;33.594;-117.718;2023-03-11T10:09:58;1.90;;;1.60;;
16524;SDS011;8375;33.594;-117.718;2023-03-11T10:12:31;1.97;;;1.83;;
16524;SDS011;8375;33.594;-117.718;2023-03-11T10:15:11;3.13;;;2.10;;
16524;SDS011;8375;33.594;-117.718;2023-03-11T10:18:00;2.37;;;1.90;;
16524;SDS011;8375;33.594;-117.718;2023-03-11T10:20:44;4.07;;;2.00;;
16524;SDS011;8375;33.594;-117.718;2023-03-11T10:23:23;2.50;;;2.30;;
16524;SDS011;8375;33.594;-117.718;2023-03-11T10:25:58;1.93;;;1.73;;
16524;SDS011;8375;33.594;-117.718;2023-03-11T10:28:34;2.33;;;2.07;;
16524;SDS011;8375;33.594;-117.718;2023-03-11T10:31:06;2.30;;;2.10;;
16524;SDS011;8375;33.594;-117.718;2023-03-11T10:33:46;2.17;;;1.97;;
16524;SDS011;8375;33.594;-117.718;2023-03-11T10:36:20;4.53;;;1.93;;
16524;SDS011;8375;33.594;-117.718;2023-03-11T10:38:54;4.97;;;2.17;;
16524;SDS011;8375;33.594;-117.718;2023-03-11T10:41:25;2.20;;;2.10;;
16524;SDS011;8375;33.594;-117.718;2023-03-11T10:44:00;2.63;;;2.43;;
16524;SDS011;8375;33.594;-117.718;2023-03-11T10:46:33;3.17;;;2.13;;
16524;SDS011;8375;33.594;-117.718;2023-03-11T10:49:01;2.20;;;2.10;;
16524;SDS011;8375;33.594;-117.718;2023-03-11T10:51:33;2.10;;;2.00;;
16524;SDS011;8375;33.594;-117.718;2023-03-11T10:54:04;3.10;;;2.10;;
16524;SDS011;8375;33.594;-117.718;2023-03-11T10:56:33;6.03;;;2.37;;
16524;SDS011;8375;33.594;-117.718;2023-03-11T10:59:03;4.60;;;2.30;;
16524;SDS011;8375;33.594;-117.718;2023-03-11T11:01:50;5.50;;;2.13;;
16524;SDS011;8375;33.594;-117.718;2023-03-11T11:04:27;4.70;;;2.10;;
16524;SDS011;8375;33.594;-117.718;2023-03-11T11:06:57;1.80;;;1.70;;
16524;SDS011;8375;33.594;-117.718;2023-03-11T11:09:47;4.03;;;1.43;;
16524;SDS011;8375;33.594;-117.718;2023-03-11T11:12:36;3.70;;;1.50;;
16524;SDS011;8375;33.594;-117.718;2023-03-11T11:15:19;2.73;;;1.97;;
16524;SDS011;8375;33.594;-117.718;2023-03-11T11:17:49;2.97;;;2.13;;
16524;SDS011;8375;33.594;-117.718;2023-03-11T11:20:20;4.67;;;2.03;;
16524;SDS011;8375;33.594;-117.718;2023-03-11T11:22:50;3.73;;;2.07;;
16524;SDS011;8375;33.594;-117.718;2023-03-11T11:25:29;2.30;;;2.03;;
16524;SDS011;8375;33.594;-117.718;2023-03-11T11:28:00;2.70;;;2.50;;
16524;SDS011;8375;33.594;-117.718;2023-03-11T11:30:31;2.57;;;2.37;;
16524;SDS011;8375;33.594;-117.718;2023-03-11T11:35:54;4.90;;;2.87;;
16524;SDS011;8375;33.594;-117.718;2023-03-11T11:38:25;13.70;;;3.87;;
16524;SDS011;8375;33.594;-117.718;2023-03-11T11:40:57;21.47;;;4.30;;
16524;SDS011;8375;33.594;-117.718;2023-03-11T11:43:36;65.90;;;6.70;;
16524;SDS011;8375;33.594;-117.718;2023-03-11T11:46:15;9.10;;;4.37;;
16524;SDS011;8375;33.594;-117.718;2023-03-11T11:48:49;3.77;;;3.47;;
16524;SDS011;8375;33.594;-117.718;2023-03-11T11:51:26;2.80;;;2.60;;
16524;SDS011;8375;33.594;-117.718;2023-03-11T11:54:00;2.90;;;2.70;;
16524;SDS011;8375;33.594;-117.718;2023-03-11T11:56:37;2.57;;;2.23;;
16524;SDS011;8375;33.594;-117.718;2023-03-11T11:59:08;2.47;;;2.10;;
16524;SDS011;8375;33.594;-117.718;2023-03-11T12:01:45;2.30;;;2.10;;
16524;SDS011;8375;33.594;-117.718;2023-03-11T12:04:28;3.93;;;1.87;;
16524;SDS011;8375;33.594;-117.718;2023-03-11T12:07:10;3.60;;;2.10;;
16524;SDS011;8375;33.594;-117.718;2023-03-11T12:09:49;2.50;;;1.70;;
16524;SDS011;8375;33.594;-117.718;2023-03-11T12:12:26;2.30;;;1.83;;
16524;SDS011;8375;33.594;-117.718;2023-03-11T12:15:01;3.80;;;1.50;;
16524;SDS011;8375;33.594;-117.718;2023-03-11T12:17:40;2.73;;;1.67;;
16524;SDS011;8375;33.594;-117.718;2023-03-11T12:20:13;5.10;;;1.77;;
16524;SDS011;8375;33.594;-117.718;2023-03-11T12:22:56;2.00;;;0.90;;
16524;SDS011;8375;33.594;-117.718;2023-03-11T12:25:36;1.20;;;1.10;;
16524;SDS011;8375;33.594;-117.718;2023-03-11T12:28:17;1.20;;;0.90;;
16524;SDS011;8375;33.594;-117.718;2023-03-11T12:30:51;3.23;;;1.00;;
16524;SDS011;8375;33.594;-117.718;2023-03-11T12:33:25;1.90;;;0.90;;
16524;SDS011;8375;33.594;-117.718;2023-03-11T12:36:00;3.80;;;1.20;;
16524;SDS011;8375;33.594;-117.718;2023-03-11T12:38:30;2.40;;;0.90;;
16524;SDS011;8375;33.594;-117.718;2023-03-11T12:41:04;1.20;;;1.10;;
16524;SDS011;8375;33.594;-117.718;2023-03-11T12:47:02;1.30;;;1.20;;
16524;SDS011;8375;33.594;-117.718;2023-03-11T12:49:52;1.73;;;1.10;;
16524;SDS011;8375;33.594;-117.718;2023-03-11T12:52:30;2.40;;;1.00;;
16524;SDS011;8375;33.594;-117.718;2023-03-11T12:55:29;4.03;;;1.37;;
16524;SDS011;8375;33.594;-117.718;2023-03-11T12:58:10;2.27;;;1.40;;
16524;SDS011;8375;33.594;-117.718;2023-03-11T13:01:10;3.13;;;1.60;;
16524;SDS011;8375;33.594;-117.718;2023-03-11T13:10:15;2.20;;;1.40;;
16524;SDS011;8375;33.594;-117.718;2023-03-11T13:12:48;2.50;;;1.80;;
16524;SDS011;8375;33.594;-117.718;2023-03-11T13:15:28;1.87;;;1.50;;
16524;SDS011;8375;33.594;-117.718;2023-03-11T13:18:20;2.23;;;1.70;;
16524;SDS011;8375;33.594;-117.718;2023-03-11T13:20:53;2.80;;;1.67;;
16524;SDS011;8375;33.594;-117.718;2023-03-11T13:23:26;1.70;;;1.60;;
16524;SDS011;8375;33.594;-117.718;2023-03-11T13:35:21;3.67;;;1.87;;
16524;SDS011;8375;33.594;-117.718;2023-03-11T13:38:10;2.10;;;2.00;;
16524;SDS011;8375;33.594;-117.718;2023-03-11T13:40:47;3.00;;;2.10;;
16524;SDS011;8375;33.594;-117.718;2023-03-11T13:43:18;1.90;;;1.80;;
16524;SDS011;8375;33.594;-117.718;2023-03-11T13:45:49;2.20;;;2.00;;
16524;SDS011;8375;33.594;-117.718;2023-03-11T13:48:23;2.10;;;2.00;;
16524;SDS011;8375;33.594;-117.718;2023-03-11T13:50:57;1.87;;;1.77;;
16524;SDS011;8375;33.594;-117.718;2023-03-11T13:53:31;2.07;;;1.93;;
16524;SDS011;8375;33.594;-117.718;2023-03-11T13:56:02;2.40;;;2.20;;
16524;SDS011;8375;33.594;-117.718;2023-03-11T13:58:31;4.57;;;2.30;;
16524;SDS011;8375;33.594;-117.718;2023-03-11T14:01:00;3.30;;;2.27;;
16524;SDS011;8375;33.594;-117.718;2023-03-11T14:03:31;5.20;;;2.30;;
16524;SDS011;8375;33.594;-117.718;2023-03-11T14:06:04;3.73;;;1.70;;
16524;SDS011;8375;33.594;-117.718;2023-03-11T14:08:37;1.97;;;1.87;;
16524;SDS011;8375;33.594;-117.718;2023-03-11T14:11:14;2.30;;;2.20;;
16524;SDS011;8375;33.594;-117.718;2023-03-11T14:13:45;3.37;;;2.03;;
16524;SDS011;8375;33.594;-117.718;2023-03-11T14:16:14;2.10;;;2.00;;
16524;SDS011;8375;33.594;-117.718;2023-03-11T14:18:47;2.40;;;1.90;;
16524;SDS011;8375;33.594;-117.718;2023-03-11T14:21:31;1.90;;;1.80;;
16524;SDS011;8375;33.594;-117.718;2023-03-11T14:24:02;2.17;;;2.07;;
16524;SDS011;8375;33.594;-117.718;2023-03-11T14:26:33;4.93;;;1.90;;
16524;SDS011;8375;33.594;-117.718;2023-03-11T14:29:06;3.83;;;1.70;;
16524;SDS011;8375;33.594;-117.718;2023-03-11T14:31:37;2.00;;;1.90;;
16524;SDS011;8375;33.594;-117.718;2023-03-11T14:34:13;3.13;;;2.07;;
16524;SDS011;8375;33.594;-117.718;2023-03-11T14:36:43;1.83;;;1.73;;
16524;SDS011;8375;33.594;-117.718;2023-03-11T14:39:25;2.07;;;1.97;;
16524;SDS011;8375;33.594;-117.718;2023-03-11T14:41:56;3.17;;;2.20;;
16524;SDS011;8375;33.594;-117.718;2023-03-11T14:44:29;3.63;;;2.60;;
16524;SDS011;8375;33.594;-117.718;2023-03-11T14:47:03;2.90;;;2.70;;
16524;SDS011;8375;33.594;-117.718;2023-03-11T14:49:36;3.10;;;2.90;;
16524;SDS011;8375;33.594;-117.718;2023-03-11T14:52:07;2.87;;;2.63;;
16524;SDS011;8375;33.594;-117.718;2023-03-11T14:54:45;2.90;;;2.27;;
16524;SDS011;8375;33.594;-117.718;2023-03-11T14:57:17;2.87;;;2.67;;
16524;SDS011;8375;33.594;-117.718;2023-03-11T14:59:49;3.07;;;2.47;;
16524;SDS011;8375;33.594;-117.718;2023-03-11T15:05:12;1.60;;;1.50;;
16524;SDS011;8375;33.594;-117.718;2023-03-11T15:07:47;3.07;;;1.70;;
16524;SDS011;8375;33.594;-117.718;2023-03-11T15:10:20;1.50;;;1.40;;
16524;SDS011;8375;33.594;-117.718;2023-03-11T15:12:49;1.70;;;1.60;;
16524;SDS011;8375;33.594;-117.718;2023-03-11T15:15:21;1.30;;;1.20;;